Terminal Aerodrome Forecast
Issued by NWS

Home | Current Version | Previous Version | Graphics & Text | Print | Product List | Glossary Off
Versions: 1 2 3 4 5 6 7 8 9 10 11 12 13 14 15 16 17 18 19 20

000
FTUS43 KDDC 251434 AAC
TAFHYS
TAF AMD
KHYS 251434Z 2515/2612 35014KT P6SM OVC030
     FM251800 36012KT P6SM BKN035
     FM260000 04009KT P6SM SCT070
      AMD NOT SKED=

USA.gov is the U.S. government's official web portal to all federal, state and local government web resources and services.